Time;durP1;ratioP1;P1;durP2;ratioP2;P2;SDS_P1;SDS_P2;PMS_P1;PMS_P2;Temp;Humidity;BMP_temperature;BMP_pressure;BME280_temperature;BME280_humidity;BME280_pressure;Samples;Min_cycle;Max_cycle;Signal;HPM_P1;HPM_P2
2021/09/08 00:00:49;;;;;;;2.28;2.00;;;25.30;41.70;;;;;;5049554;28;20037;-89
2021/09/08 00:03:15;;;;;;;2.83;2.20;;;25.30;41.60;;;;;;5038511;28;20018;-89
2021/09/08 00:05:41;;;;;;;3.60;1.60;;;25.30;41.40;;;;;;5035885;28;20029;-89
2021/09/08 00:08:07;;;;;;;2.67;1.77;;;25.30;41.80;;;;;;5035876;28;20167;-89
2021/09/08 00:10:33;;;;;;;2.20;1.85;;;25.30;41.20;;;;;;5038570;28;20022;-88
2021/09/08 00:12:58;;;;;;;3.03;1.90;;;25.30;41.70;;;;;;5040049;28;20425;-90
2021/09/08 00:15:24;;;;;;;2.28;1.60;;;25.30;41.60;;;;;;5058918;28;20025;-90
2021/09/08 00:17:50;;;;;;;2.95;2.00;;;25.20;41.40;;;;;;5054279;28;20063;-91
2021/09/08 00:20:16;;;;;;;2.50;1.83;;;25.20;41.20;;;;;;5040983;28;20049;-89
2021/09/08 00:22:45;;;;;;;3.20;2.00;;;25.20;41.60;;;;;;5035821;28;20264;-88
2021/09/08 00:25:12;;;;;;;5.10;1.85;;;25.10;41.40;;;;;;5035466;28;20022;-90
2021/09/08 00:27:38;;;;;;;4.05;2.13;;;25.10;41.60;;;;;;5038601;28;20030;-89
2021/09/08 00:30:05;;;;;;;2.95;1.80;;;25.10;41.90;;;;;;5035565;28;20062;-89
2021/09/08 00:32:30;;;;;;;3.92;1.95;;;25.10;41.80;;;;;;5037425;28;20037;-89
2021/09/08 00:34:56;;;;;;;4.00;1.80;;;25.00;42.10;;;;;;5035302;28;20033;-90
2021/09/08 00:37:22;;;;;;;2.50;1.85;;;24.90;42.20;;;;;;5042574;28;20021;-88
2021/09/08 00:39:47;;;;;;;2.22;1.65;;;24.90;42.50;;;;;;5055090;28;20060;-90
2021/09/08 00:42:16;;;;;;;2.60;1.77;;;24.80;42.00;;;;;;5046560;28;20037;-90
2021/09/08 00:44:43;;;;;;;3.10;1.47;;;24.90;42.20;;;;;;5061946;28;20055;-89
2021/09/08 00:47:15;;;;;;;2.15;1.60;;;24.80;42.00;;;;;;5058563;28;20553;-91
2021/09/08 00:49:42;;;;;;;2.95;1.80;;;24.80;42.30;;;;;;5060891;28;20025;-90
2021/09/08 00:52:12;;;;;;;3.85;2.13;;;24.80;42.30;;;;;;5041986;28;20029;-90
2021/09/08 00:54:37;;;;;;;2.25;1.70;;;24.80;42.40;;;;;;5042124;28;20048;-90
2021/09/08 00:57:05;;;;;;;2.08;1.60;;;24.80;42.70;;;;;;5037260;28;20053;-91
2021/09/08 00:59:34;;;;;;;2.95;2.10;;;24.70;42.70;;;;;;5043414;28;20026;-90
2021/09/08 01:02:01;;;;;;;3.25;1.83;;;24.70;42.90;;;;;;5041319;28;20488;-91
2021/09/08 01:04:27;;;;;;;3.85;1.95;;;24.70;42.90;;;;;;5038690;28;20033;-89
2021/09/08 01:06:58;;;;;;;2.85;1.73;;;24.80;42.90;;;;;;5041555;28;20025;-90
2021/09/08 01:09:24;;;;;;;2.40;1.70;;;24.70;43.10;;;;;;5038712;28;20029;-90
2021/09/08 01:11:49;;;;;;;4.03;2.28;;;24.60;43.10;;;;;;5041224;28;20060;-89
2021/09/08 01:14:15;;;;;;;2.33;1.70;;;24.70;43.20;;;;;;5038760;28;20099;-89
2021/09/08 01:16:41;;;;;;;2.15;1.63;;;24.70;43.50;;;;;;5037922;28;20470;-90
2021/09/08 01:19:06;;;;;;;2.33;1.77;;;24.70;43.40;;;;;;5045908;28;20090;-90
2021/09/08 01:21:32;;;;;;;2.08;1.75;;;24.60;43.50;;;;;;5058417;28;20032;-88
2021/09/08 01:24:08;;;;;;;3.83;2.10;;;24.60;43.60;;;;;;5041813;28;20048;-89
2021/09/08 01:26:45;;;;;;;5.40;1.60;;;24.50;43.70;;;;;;5038278;28;20487;-90
2021/09/08 01:29:10;;;;;;;3.25;2.40;;;24.40;43.90;;;;;;5041408;28;20036;-90
2021/09/08 01:31:37;;;;;;;4.47;2.03;;;24.40;44.00;;;;;;5038147;28;20029;-89
2021/09/08 01:34:04;;;;;;;2.95;2.00;;;24.30;44.20;;;;;;5039849;28;20083;-89
2021/09/08 01:36:35;;;;;;;2.40;1.67;;;24.40;44.20;;;;;;5045149;28;20021;-89
2021/09/08 01:39:03;;;;;;;2.90;2.25;;;24.40;44.40;;;;;;5056229;28;20032;-89
2021/09/08 01:41:29;;;;;;;2.17;1.67;;;24.40;44.50;;;;;;5073338;28;20139;-88
2021/09/08 01:43:54;;;;;;;2.28;1.85;;;24.40;44.40;;;;;;5057440;28;20061;-88
2021/09/08 01:46:21;;;;;;;2.38;1.83;;;24.30;44.70;;;;;;5041016;28;20424;-91
2021/09/08 01:48:47;;;;;;;2.92;1.88;;;24.30;44.80;;;;;;5036838;28;20044;-91
2021/09/08 01:51:19;;;;;;;3.83;1.80;;;24.30;44.90;;;;;;5055701;28;20017;-90
2021/09/08 01:53:46;;;;;;;3.45;1.80;;;24.30;45.20;;;;;;5053443;28;20021;-90
2021/09/08 01:56:12;;;;;;;2.00;1.50;;;24.30;44.90;;;;;;5037808;28;20020;-90
2021/09/08 01:58:37;;;;;;;3.17;2.00;;;24.30;45.00;;;;;;5039262;28;20140;-89
2021/09/08 02:01:04;;;;;;;4.13;1.83;;;24.20;45.30;;;;;;5036314;28;20120;-90
2021/09/08 02:03:29;;;;;;;2.45;1.73;;;24.10;45.70;;;;;;5039673;28;20033;-90
2021/09/08 02:05:55;;;;;;;2.65;2.00;;;24.10;45.70;;;;;;5037708;28;20472;-88
2021/09/08 02:08:24;;;;;;;2.33;1.50;;;24.10;45.70;;;;;;5040006;28;20021;-90
2021/09/08 02:10:49;;;;;;;2.35;2.00;;;24.10;46.00;;;;;;5037824;28;20445;-89
2021/09/08 02:13:15;;;;;;;2.85;1.80;;;24.10;45.90;;;;;;5037544;28;20055;-89
2021/09/08 02:15:41;;;;;;;3.22;1.85;;;24.00;46.00;;;;;;5039400;28;20089;-90
2021/09/08 02:18:06;;;;;;;2.58;1.80;;;24.10;46.20;;;;;;5037209;28;20045;-89
2021/09/08 02:20:32;;;;;;;2.83;1.90;;;24.10;46.30;;;;;;5040061;28;20462;-88
2021/09/08 02:22:58;;;;;;;2.90;1.77;;;24.10;46.20;;;;;;5036184;28;20033;-90
2021/09/08 02:25:24;;;;;;;2.88;2.05;;;24.00;46.40;;;;;;5039257;28;20036;-89
2021/09/08 02:27:50;;;;;;;3.22;1.88;;;24.00;46.50;;;;;;5037464;28;20089;-89
2021/09/08 02:30:15;;;;;;;2.80;1.70;;;24.10;46.50;;;;;;5035688;28;20021;-89
2021/09/08 02:32:41;;;;;;;2.33;1.90;;;24.00;46.70;;;;;;5040188;28;20085;-90
2021/09/08 02:35:08;;;;;;;3.60;1.77;;;24.00;46.90;;;;;;5035685;28;20033;-89
2021/09/08 02:37:34;;;;;;;2.15;1.80;;;24.00;47.00;;;;;;5053300;28;20036;-88
2021/09/08 02:39:59;;;;;;;2.97;1.73;;;23.90;47.10;;;;;;5056731;28;20029;-90
2021/09/08 02:42:25;;;;;;;2.53;1.90;;;23.90;47.10;;;;;;5051010;28;20040;-88
2021/09/08 02:44:51;;;;;;;2.75;2.08;;;23.80;47.60;;;;;;5037497;28;20030;-88
2021/09/08 02:47:17;;;;;;;2.20;1.75;;;23.80;47.70;;;;;;5035164;28;20056;-89
2021/09/08 02:49:43;;;;;;;2.33;1.98;;;23.80;48.00;;;;;;5038431;28;20025;-89
2021/09/08 02:52:09;;;;;;;2.30;1.90;;;23.60;48.50;;;;;;5035985;28;20034;-89
2021/09/08 02:54:35;;;;;;;2.60;1.90;;;23.50;48.60;;;;;;5058313;28;20036;-89
2021/09/08 02:57:01;;;;;;;3.20;2.22;;;23.60;48.70;;;;;;5056482;28;20090;-89
2021/09/08 02:59:26;;;;;;;2.50;1.83;;;23.50;49.00;;;;;;5057237;28;20025;-89
2021/09/08 03:01:53;;;;;;;3.58;1.77;;;23.60;48.90;;;;;;5056768;28;20069;-89
2021/09/08 03:04:18;;;;;;;3.15;1.98;;;23.50;48.80;;;;;;5055066;28;20044;-89
2021/09/08 03:06:47;;;;;;;2.97;2.20;;;23.60;49.00;;;;;;5059781;28;20028;-89
2021/09/08 03:09:13;;;;;;;2.88;1.98;;;23.60;49.00;;;;;;5050836;28;20026;-90
2021/09/08 03:11:39;;;;;;;3.40;2.00;;;23.60;49.20;;;;;;5038348;28;20037;-89
2021/09/08 03:14:05;;;;;;;2.70;2.05;;;23.50;49.00;;;;;;5036213;28;20034;-89
2021/09/08 03:16:30;;;;;;;3.05;2.00;;;23.50;49.20;;;;;;5037796;28;20029;-90
2021/09/08 03:18:56;;;;;;;3.33;2.03;;;23.40;49.30;;;;;;5037048;28;20053;-88
2021/09/08 03:21:22;;;;;;;3.05;1.95;;;23.40;49.90;;;;;;5034627;28;20029;-89
2021/09/08 03:23:47;;;;;;;2.90;2.05;;;23.50;49.60;;;;;;5047431;28;20025;-88
2021/09/08 03:26:13;;;;;;;3.05;2.00;;;23.40;50.20;;;;;;5036099;28;20029;-88
2021/09/08 03:28:38;;;;;;;3.53;2.10;;;23.30;50.60;;;;;;5039419;28;20446;-90
2021/09/08 03:31:04;;;;;;;2.72;2.13;;;23.30;50.90;;;;;;5035941;28;20025;-88
2021/09/08 03:33:30;;;;;;;2.42;1.90;;;23.20;50.80;;;;;;5037545;28;20108;-89
2021/09/08 03:35:55;;;;;;;6.45;2.20;;;23.20;50.40;;;;;;5038941;28;20108;-89
2021/09/08 03:38:21;;;;;;;4.55;2.25;;;23.20;50.50;;;;;;5054567;28;20022;-87
2021/09/08 03:40:47;;;;;;;3.10;2.22;;;23.20;50.30;;;;;;5059306;28;20033;-88
2021/09/08 03:43:12;;;;;;;2.88;1.92;;;23.20;50.70;;;;;;5048918;28;20030;-88
2021/09/08 03:45:38;;;;;;;4.55;2.10;;;23.20;51.50;;;;;;5039276;28;20064;-89
2021/09/08 03:48:04;;;;;;;2.97;2.00;;;23.10;50.90;;;;;;5036059;28;20022;-88
2021/09/08 03:50:31;;;;;;;3.28;1.70;;;23.10;51.10;;;;;;5036748;28;20021;-87
2021/09/08 03:52:56;;;;;;;2.25;1.70;;;23.10;51.20;;;;;;5037889;28;20022;-88
2021/09/08 03:55:22;;;;;;;2.63;2.15;;;23.10;51.80;;;;;;5034707;28;20033;-89
2021/09/08 03:57:48;;;;;;;3.40;2.15;;;23.10;51.90;;;;;;5038935;28;20053;-89
2021/09/08 04:00:14;;;;;;;3.38;2.22;;;23.00;52.00;;;;;;5035657;28;20037;-88
2021/09/08 04:02:40;;;;;;;3.75;2.10;;;23.00;52.40;;;;;;5038445;28;20025;-87
2021/09/08 04:05:06;;;;;;;2.85;2.00;;;23.00;51.80;;;;;;5035578;28;20026;-88
2021/09/08 04:07:41;;;;;;;2.55;1.90;;;23.00;52.30;;;;;;5036837;28;20029;-88
2021/09/08 04:10:07;;;;;;;2.70;1.90;;;22.90;52.70;;;;;;5037122;28;20022;-89
2021/09/08 04:12:33;;;;;;;2.90;2.47;;;22.90;53.20;;;;;;5044867;28;20035;-89
2021/09/08 04:14:58;;;;;;;2.78;2.30;;;22.80;52.90;;;;;;5042803;28;20037;-88
2021/09/08 04:17:24;;;;;;;3.08;2.30;;;22.80;53.20;;;;;;5038156;28;20463;-88
2021/09/08 04:19:50;;;;;;;2.65;2.17;;;22.80;53.70;;;;;;5042646;28;20039;-88
2021/09/08 04:22:16;;;;;;;3.45;2.17;;;22.80;53.70;;;;;;5039152;28;20037;-88
2021/09/08 04:24:44;;;;;;;4.03;2.28;;;22.80;52.40;;;;;;5040388;28;20160;-88
2021/09/08 04:27:09;;;;;;;4.78;2.13;;;22.90;52.70;;;;;;5056013;28;20075;-88
2021/09/08 04:29:35;;;;;;;4.63;2.28;;;22.80;52.60;;;;;;5047289;28;20033;-88
2021/09/08 04:32:01;;;;;;;3.40;2.60;;;22.80;52.50;;;;;;5061955;28;20108;-88
2021/09/08 04:34:26;;;;;;;3.50;1.98;;;22.60;53.40;;;;;;5057551;28;20029;-87
2021/09/08 04:36:52;;;;;;;2.65;2.20;;;22.30;54.10;;;;;;5062124;28;20032;-88
2021/09/08 04:39:18;;;;;;;2.95;2.50;;;22.30;54.30;;;;;;5042936;28;20101;-88
2021/09/08 04:41:43;;;;;;;2.88;2.22;;;22.30;54.40;;;;;;5068385;28;20063;-87
2021/09/08 04:44:09;;;;;;;3.95;2.15;;;22.30;54.60;;;;;;5072541;28;20032;-87
2021/09/08 04:46:35;;;;;;;2.65;2.10;;;22.30;54.50;;;;;;5058596;28;20487;-85
2021/09/08 04:49:00;;;;;;;3.13;2.17;;;22.40;54.50;;;;;;5058894;28;20051;-84
2021/09/08 04:51:26;;;;;;;3.30;2.65;;;22.40;54.60;;;;;;5052121;28;20381;-87
2021/09/08 04:53:52;;;;;;;3.38;2.33;;;22.30;55.60;;;;;;5039180;28;20065;-89
2021/09/08 04:56:17;;;;;;;4.28;2.30;;;22.10;55.60;;;;;;5038395;28;20024;-88
2021/09/08 04:58:43;;;;;;;2.88;2.20;;;22.30;55.30;;;;;;5036991;28;20045;-85
2021/09/08 05:01:09;;;;;;;3.13;2.50;;;22.30;55.00;;;;;;5040996;28;20105;-88
2021/09/08 05:03:34;;;;;;;5.32;2.55;;;22.30;54.40;;;;;;5038732;28;20045;-90
2021/09/08 05:06:00;;;;;;;2.90;2.53;;;22.40;54.60;;;;;;5039099;28;20083;-81
2021/09/08 05:08:26;;;;;;;2.65;2.20;;;22.30;54.80;;;;;;5044860;28;20033;-85
2021/09/08 05:10:51;;;;;;;4.45;2.35;;;22.50;54.30;;;;;;5050411;28;20033;-82
2021/09/08 05:13:17;;;;;;;3.88;2.15;;;22.60;53.90;;;;;;5038151;28;20396;-87
2021/09/08 05:16:06;;;;;;;2.70;2.13;;;22.50;54.20;;;;;;5045366;28;20113;-90
2021/09/08 05:18:31;;;;;;;3.92;2.30;;;22.60;54.20;;;;;;5049788;28;20465;-90
2021/09/08 05:20:57;;;;;;;2.80;2.20;;;22.60;54.00;;;;;;5048460;28;20076;-91
2021/09/08 05:23:22;;;;;;;2.78;2.40;;;22.80;53.20;;;;;;5052879;28;20028;-89
2021/09/08 05:25:48;;;;;;;3.08;2.60;;;22.70;53.80;;;;;;5042812;28;20029;-87
2021/09/08 05:28:14;;;;;;;3.15;2.55;;;22.60;53.70;;;;;;5037784;28;20029;-86
2021/09/08 05:30:39;;;;;;;3.00;2.40;;;22.50;54.40;;;;;;5037372;28;20064;-86
2021/09/08 05:33:05;;;;;;;2.83;2.10;;;22.30;55.60;;;;;;5042973;28;20029;-87
2021/09/08 05:35:31;;;;;;;4.97;3.50;;;21.90;57.30;;;;;;5042246;28;20028;-85
2021/09/08 05:37:56;;;;;;;6.13;3.83;;;21.80;61.60;;;;;;5056919;28;20021;-83
2021/09/08 05:40:22;;;;;;;8.35;4.57;;;22.10;64.00;;;;;;5061571;28;20032;-82
2021/09/08 05:42:48;;;;;;;7.82;4.35;;;21.90;70.00;;;;;;5042441;28;20140;-82
2021/09/08 05:45:13;;;;;;;10.55;5.25;;;21.90;70.50;;;;;;5036790;28;20022;-83
2021/09/08 05:47:39;;;;;;;6.63;5.47;;;22.10;72.20;;;;;;5035641;28;20021;-85
2021/09/08 05:50:06;;;;;;;8.35;5.20;;;22.30;71.60;;;;;;5036461;28;20033;-80
2021/09/08 05:52:31;;;;;;;9.00;5.40;;;22.50;71.30;;;;;;5035267;28;20084;-81
2021/09/08 05:54:57;;;;;;;5.60;4.53;;;22.70;71.00;;;;;;5036372;28;20033;-81
2021/09/08 05:57:23;;;;;;;7.95;5.18;;;22.80;70.60;;;;;;5040293;28;20044;-81
2021/09/08 05:59:48;;;;;;;6.28;4.85;;;22.90;70.40;;;;;;5056190;28;20778;-81
2021/09/08 06:02:14;;;;;;;8.20;5.43;;;23.00;69.50;;;;;;5055942;28;20036;-80
2021/09/08 06:04:39;;;;;;;6.63;4.93;;;23.10;69.30;;;;;;5043598;28;20030;-80
2021/09/08 06:07:05;;;;;;;5.57;4.18;;;23.00;69.10;;;;;;5036252;28;20026;-81
2021/09/08 06:09:31;;;;;;;6.40;3.72;;;23.00;69.60;;;;;;5036296;28;20108;-80
2021/09/08 06:11:57;;;;;;;4.65;3.53;;;22.90;69.80;;;;;;5048779;28;20036;-81
2021/09/08 06:14:24;;;;;;;4.30;3.15;;;23.00;69.20;;;;;;5036273;28;20033;-81
2021/09/08 06:16:50;;;;;;;5.03;3.40;;;23.00;69.80;;;;;;5035830;28;20029;-80
2021/09/08 06:19:15;;;;;;;4.50;3.03;;;22.90;69.60;;;;;;5034981;28;20124;-81
2021/09/08 06:21:41;;;;;;;4.93;3.33;;;22.90;69.60;;;;;;5052678;28;20087;-80
2021/09/08 06:24:07;;;;;;;6.18;3.30;;;22.90;69.70;;;;;;5055751;28;20057;-81
2021/09/08 06:26:33;;;;;;;3.60;3.20;;;22.90;69.40;;;;;;5053843;28;20029;-80
2021/09/08 06:28:58;;;;;;;3.00;2.60;;;22.90;70.00;;;;;;5055989;28;20549;-81
2021/09/08 06:31:24;;;;;;;4.72;2.88;;;22.90;69.90;;;;;;5055672;28;20079;-81
2021/09/08 06:33:50;;;;;;;5.63;3.92;;;22.90;69.70;;;;;;5055639;28;20033;-81
2021/09/08 06:36:17;;;;;;;4.40;3.28;;;22.90;70.30;;;;;;5049781;28;20169;-81
2021/09/08 06:38:42;;;;;;;4.18;3.22;;;22.70;71.50;;;;;;5035931;28;20045;-82
2021/09/08 06:41:08;;;;;;;4.57;2.53;;;22.60;72.00;;;;;;5039613;28;20491;-82
2021/09/08 06:43:34;;;;;;;5.85;2.97;;;22.10;74.60;;;;;;5035709;28;20026;-82
2021/09/08 06:45:59;;;;;;;3.85;3.15;;;21.90;75.20;;;;;;5035977;28;20013;-82
2021/09/08 06:48:25;;;;;;;5.15;3.42;;;21.70;76.40;;;;;;5048464;28;20139;-83
2021/09/08 06:50:51;;;;;;;5.22;3.75;;;21.50;76.30;;;;;;5055379;28;20032;-82
2021/09/08 06:53:16;;;;;;;6.60;4.25;;;21.70;77.60;;;;;;5049600;28;20503;-81
2021/09/08 06:55:42;;;;;;;8.65;3.88;;;21.30;92.60;;;;;;5035825;28;20423;-81
2021/09/08 06:58:08;;;;;;;6.20;4.30;;;21.00;92.90;;;;;;5041329;28;20175;-81
2021/09/08 07:00:33;;;;;;;6.40;3.97;;;21.10;93.50;;;;;;5054543;28;20028;-81
2021/09/08 07:02:59;;;;;;;5.53;4.43;;;21.10;93.70;;;;;;5045347;28;20044;-81
2021/09/08 07:05:26;;;;;;;5.18;3.90;;;20.90;93.00;;;;;;5035689;28;20055;-81
2021/09/08 07:07:52;;;;;;;5.80;3.95;;;20.80;92.10;;;;;;5035410;28;20392;-81
2021/09/08 07:10:17;;;;;;;7.20;4.68;;;20.80;93.70;;;;;;5035463;28;20049;-81
2021/09/08 07:12:43;;;;;;;8.90;5.13;;;20.90;93.50;;;;;;5035104;28;20032;-81
2021/09/08 07:15:11;;;;;;;10.35;5.35;;;20.90;93.20;;;;;;5034964;28;20041;-81
2021/09/08 07:17:36;;;;;;;9.18;4.68;;;21.00;93.60;;;;;;5035084;28;20033;-82
2021/09/08 07:20:03;;;;;;;5.30;4.40;;;21.00;93.00;;;;;;5043018;28;20077;-81
2021/09/08 07:22:29;;;;;;;4.88;4.18;;;20.90;93.00;;;;;;5054852;28;20028;-81
2021/09/08 07:24:54;;;;;;;8.32;4.55;;;20.80;92.60;;;;;;5055029;28;20803;-81
2021/09/08 07:27:20;;;;;;;4.13;2.92;;;20.90;93.50;;;;;;5035167;28;20029;-81
2021/09/08 07:29:46;;;;;;;4.18;3.15;;;20.90;93.20;;;;;;5035148;28;20500;-81
2021/09/08 07:32:12;;;;;;;6.30;2.65;;;20.90;93.30;;;;;;5035372;28;20023;-81
2021/09/08 07:34:37;;;;;;;5.88;3.20;;;21.00;93.20;;;;;;5034934;28;20075;-81
2021/09/08 07:37:03;;;;;;;5.68;2.80;;;21.00;92.20;;;;;;5035223;28;20480;-81
2021/09/08 07:39:29;;;;;;;5.50;3.20;;;21.10;92.60;;;;;;5034976;28;20042;-81
2021/09/08 07:41:56;;;;;;;3.33;2.50;;;21.00;93.20;;;;;;5070260;28;20027;-81
2021/09/08 07:44:21;;;;;;;3.80;2.85;;;20.90;91.80;;;;;;5037115;28;20496;-81
2021/09/08 07:46:47;;;;;;;5.18;3.22;;;20.80;92.60;;;;;;5037414;28;20021;-80
2021/09/08 07:49:13;;;;;;;7.22;3.30;;;20.50;91.40;;;;;;5039037;28;20037;-80
2021/09/08 07:51:38;;;;;;;5.63;3.05;;;20.50;93.30;;;;;;5038857;28;20029;-81
2021/09/08 07:54:04;;;;;;;5.00;3.40;;;20.50;93.60;;;;;;5054275;28;20033;-83
2021/09/08 07:56:30;;;;;;;4.22;3.25;;;20.60;93.40;;;;;;5038557;28;20104;-81
2021/09/08 07:58:55;;;;;;;5.68;3.75;;;20.60;93.70;;;;;;5038853;28;20503;-81
2021/09/08 08:01:21;;;;;;;5.72;2.90;;;20.60;93.50;;;;;;5038773;28;20512;-81
2021/09/08 08:03:47;;;;;;;4.53;3.22;;;20.60;93.20;;;;;;5038550;28;20036;-81
2021/09/08 08:06:12;;;;;;;4.53;3.42;;;20.60;93.40;;;;;;5038421;28;20101;-81
2021/09/08 08:08:38;;;;;;;4.85;3.25;;;20.70;93.00;;;;;;5038758;28;20030;-81
2021/09/08 08:11:04;;;;;;;3.70;3.22;;;20.50;92.80;;;;;;5038676;28;20097;-81
2021/09/08 08:13:30;;;;;;;4.72;3.20;;;20.60;93.20;;;;;;5045625;28;20017;-81
2021/09/08 08:15:55;;;;;;;3.30;3.00;;;20.70;93.60;;;;;;5058586;28;20792;-81
2021/09/08 08:18:21;;;;;;;4.97;3.08;;;22.30;92.50;;;;;;5058132;28;20020;-82
2021/09/08 08:20:47;;;;;;;4.75;3.50;;;21.80;91.60;;;;;;5045824;28;20021;-82
2021/09/08 08:23:13;;;;;;;4.95;3.00;;;21.60;91.90;;;;;;5053076;28;20087;-81
2021/09/08 08:25:38;;;;;;;7.45;3.78;;;21.70;91.70;;;;;;5053294;28;20026;-82
2021/09/08 08:28:05;;;;;;;3.72;2.90;;;23.10;91.30;;;;;;5037135;28;20026;-82
2021/09/08 08:30:31;;;;;;;4.40;2.60;;;24.60;89.30;;;;;;5038295;28;20496;-82
2021/09/08 08:32:58;;;;;;;5.80;2.80;;;25.80;86.10;;;;;;5037963;28;20031;-82
2021/09/08 08:35:24;;;;;;;5.00;2.88;;;26.90;83.90;;;;;;5038150;28;20053;-82
2021/09/08 08:37:51;;;;;;;17.23;3.28;;;27.70;82.50;;;;;;5037778;28;20037;-83
2021/09/08 08:40:18;;;;;;;12.07;2.80;;;28.30;80.10;;;;;;5058319;28;20042;-83
2021/09/08 08:42:45;;;;;;;8.45;2.30;;;28.80;79.00;;;;;;5074765;28;20047;-83
2021/09/08 08:45:11;;;;;;;3.10;1.77;;;29.20;77.00;;;;;;5037886;28;20044;-82
2021/09/08 08:47:37;;;;;;;2.45;1.77;;;29.50;74.00;;;;;;5037897;28;20022;-83
2021/09/08 08:50:05;;;;;;;2.15;1.92;;;29.90;72.50;;;;;;5037978;28;20029;-83
2021/09/08 08:52:31;;;;;;;4.28;1.83;;;30.10;72.30;;;;;;5037816;28;20530;-83
2021/09/08 08:54:56;;;;;;;2.38;1.90;;;30.40;70.20;;;;;;5037577;28;20029;-83
2021/09/08 08:57:22;;;;;;;3.13;2.05;;;30.40;68.40;;;;;;5036357;28;20521;-82
2021/09/08 08:59:49;;;;;;;58.92;6.30;;;30.70;69.30;;;;;;5037512;28;20025;-82
2021/09/08 09:02:26;;;;;;;15.25;2.83;;;30.80;65.80;;;;;;5037440;28;20053;-82
2021/09/08 09:04:58;;;;;;;3.58;2.60;;;30.80;63.90;;;;;;5037382;28;20017;-82
2021/09/08 09:07:33;;;;;;;3.05;2.50;;;30.20;62.90;;;;;;5037458;28;20053;-82
2021/09/08 09:10:05;;;;;;;3.40;2.20;;;29.50;59.60;;;;;;5050162;28;20108;-82
2021/09/08 09:12:33;;;;;;;2.53;1.95;;;29.10;62.70;;;;;;5056023;28;20025;-82
2021/09/08 09:15:02;;;;;;;2.85;2.13;;;28.80;58.50;;;;;;5057475;28;20068;-82
2021/09/08 09:17:32;;;;;;;3.45;2.40;;;28.80;62.10;;;;;;5047894;28;20032;-82
2021/09/08 09:20:03;;;;;;;3.33;2.08;;;29.30;61.00;;;;;;5037347;28;20029;-82
2021/09/08 09:22:43;;;;;;;2.17;1.88;;;28.80;65.60;;;;;;5043026;28;20041;-82
2021/09/08 09:25:12;;;;;;;3.55;2.15;;;28.70;66.10;;;;;;5037306;28;20018;-82
2021/09/08 09:27:49;;;;;;;3.83;2.28;;;28.40;67.00;;;;;;5037074;28;20085;-82
2021/09/08 09:30:21;;;;;;;2.65;2.25;;;28.00;66.40;;;;;;5037269;28;20025;-82
2021/09/08 09:32:49;;;;;;;3.00;2.05;;;27.80;68.00;;;;;;5037056;28;20192;-82
2021/09/08 09:35:19;;;;;;;3.08;2.28;;;27.90;67.60;;;;;;5036796;28;20037;-81
2021/09/08 09:37:50;;;;;;;2.67;2.30;;;28.30;64.60;;;;;;5052434;28;20382;-81
2021/09/08 09:40:18;;;;;;;2.53;2.10;;;28.90;63.80;;;;;;5043270;28;20079;-82
2021/09/08 09:42:45;;;;;;;2.80;2.00;;;30.10;59.20;;;;;;5073720;28;20517;-82
2021/09/08 09:45:12;;;;;;;2.40;1.88;;;31.30;55.10;;;;;;5036744;28;20112;-82
2021/09/08 09:47:44;;;;;;;3.78;1.92;;;32.10;54.00;;;;;;5036922;28;20057;-83
2021/09/08 09:50:14;;;;;;;3.45;2.00;;;32.40;50.30;;;;;;5041102;28;20100;-83
2021/09/08 09:52:41;;;;;;;3.22;1.95;;;32.20;48.30;;;;;;5056768;28;20032;-83
2021/09/08 09:55:07;;;;;;;3.30;2.10;;;31.80;52.60;;;;;;5038326;28;20573;-82
2021/09/08 09:57:33;;;;;;;3.65;2.33;;;31.10;51.00;;;;;;5036373;28;20083;-82
2021/09/08 10:00:00;;;;;;;3.60;2.00;;;30.80;57.00;;;;;;5036998;28;20108;-81
2021/09/08 10:02:26;;;;;;;2.28;2.00;;;30.40;58.40;;;;;;5036333;28;20033;-82
2021/09/08 10:04:53;;;;;;;3.00;2.70;;;29.80;57.80;;;;;;5036140;28;20033;-81
2021/09/08 10:07:22;;;;;;;3.38;2.40;;;29.10;58.00;;;;;;5035729;28;20030;-82
2021/09/08 10:09:50;;;;;;;;;;;28.80;58.10;;;;;;5036125;28;20024;-81
2021/09/08 10:12:19;;;;;;;6.93;2.95;;;28.70;62.50;;;;;;5036280;28;20348;-81
2021/09/08 10:14:46;;;;;;;3.97;2.30;;;28.40;63.30;;;;;;5044198;28;20029;-81
2021/09/08 10:17:16;;;;;;;3.35;2.20;;;28.00;62.10;;;;;;5056162;28;20057;-81
2021/09/08 10:19:42;;;;;;;2.95;2.50;;;28.00;59.10;;;;;;5052218;28;20503;-81
2021/09/08 10:22:10;;;;;;;3.45;2.25;;;28.20;61.70;;;;;;5036195;28;20036;-82
2021/09/08 10:24:42;;;;;;;3.15;2.22;;;28.50;60.90;;;;;;5036187;28;20026;-81
2021/09/08 10:27:22;;;;;;;2.63;2.10;;;28.40;58.90;;;;;;5035800;28;20036;-81
2021/09/08 10:29:51;;;;;;;3.88;2.38;;;28.20;58.80;;;;;;5036085;28;20436;-81
2021/09/08 10:32:19;;;;;;;3.38;2.42;;;27.80;61.40;;;;;;5049665;28;20043;-81
2021/09/08 10:34:46;;;;;;;2.42;2.22;;;27.90;63.40;;;;;;5035915;28;20042;-81
2021/09/08 10:37:12;;;;;;;2.75;2.00;;;28.00;60.40;;;;;;5034690;28;20104;-81
2021/09/08 10:39:41;;;;;;;2.28;1.98;;;28.10;60.80;;;;;;5035831;28;20057;-81
2021/09/08 10:42:06;;;;;;;3.58;2.22;;;27.80;60.90;;;;;;5072614;28;20116;-81
2021/09/08 10:44:50;;;;;;;4.80;2.28;;;27.80;59.70;;;;;;5042879;28;20060;-81
2021/09/08 10:47:37;;;;;;;3.22;2.03;;;27.80;60.40;;;;;;5035715;28;20095;-82
2021/09/08 10:50:05;;;;;;;4.93;2.22;;;27.50;60.60;;;;;;5035414;28;20026;-81
2021/09/08 10:52:34;;;;;;;3.17;2.40;;;27.60;60.50;;;;;;5035507;28;20146;-82
2021/09/08 10:54:59;;;;;;;4.07;2.35;;;27.50;61.00;;;;;;5035689;28;20092;-81
2021/09/08 10:57:40;;;;;;;3.13;2.15;;;27.60;61.60;;;;;;5035190;28;20076;-82
2021/09/08 11:00:08;;;;;;;2.67;2.17;;;27.30;60.30;;;;;;5035532;28;20047;-84
2021/09/08 11:02:43;;;;;;;3.58;2.20;;;27.40;60.20;;;;;;5035588;28;20551;-82
2021/09/08 11:05:10;;;;;;;3.05;2.60;;;27.20;60.50;;;;;;5035511;28;20025;-82
2021/09/08 11:07:39;;;;;;;2.75;2.35;;;27.00;62.10;;;;;;5038627;28;20059;-82
2021/09/08 11:10:05;;;;;;;3.53;2.20;;;27.20;61.40;;;;;;5037990;28;20040;-80
2021/09/08 11:12:48;;;;;;;2.47;2.28;;;27.20;61.60;;;;;;5042112;28;20025;-81
2021/09/08 11:15:15;;;;;;;3.28;1.90;;;27.00;61.20;;;;;;5044981;28;20052;-84
2021/09/08 11:17:41;;;;;;;3.00;2.28;;;27.30;60.90;;;;;;5042406;28;20032;-81
2021/09/08 11:20:08;;;;;;;4.50;2.47;;;27.10;60.30;;;;;;5056437;28;20037;-82
2021/09/08 11:22:35;;;;;;;2.20;2.00;;;27.30;60.20;;;;;;5048493;28;20017;-83
2021/09/08 11:25:06;;;;;;;3.30;2.63;;;27.10;61.20;;;;;;5050854;28;20110;-82
2021/09/08 11:27:31;;;;;;;2.67;2.47;;;27.00;61.90;;;;;;5046828;28;21044;-81
2021/09/08 11:30:05;;;;;;;4.10;2.63;;;27.20;62.30;;;;;;5051598;28;20017;-84
2021/09/08 11:32:48;;;;;;;4.68;2.88;;;27.20;61.40;;;;;;5048675;28;20037;-83
2021/09/08 11:35:14;;;;;;;3.40;2.58;;;27.10;61.70;;;;;;5048070;28;20483;-83
2021/09/08 11:37:44;;;;;;;3.13;2.50;;;27.30;63.50;;;;;;5050692;28;20033;-83
2021/09/08 11:40:10;;;;;;;3.92;2.60;;;27.30;61.70;;;;;;5052973;28;20053;-82
2021/09/08 11:42:42;;;;;;;4.97;2.70;;;27.40;61.60;;;;;;5041185;28;20063;-82
2021/09/08 11:45:09;;;;;;;3.88;2.70;;;27.60;61.90;;;;;;5041574;28;20032;-81
2021/09/08 11:47:34;;;;;;;3.55;2.88;;;27.60;60.00;;;;;;5045779;28;20028;-82
2021/09/08 11:50:01;;;;;;;3.42;2.88;;;27.70;61.10;;;;;;5040870;28;20029;-82
2021/09/08 11:52:27;;;;;;;4.13;2.90;;;27.80;60.60;;;;;;5046211;28;20044;-81
2021/09/08 11:54:53;;;;;;;3.45;2.40;;;28.00;59.50;;;;;;5039839;28;20038;-82
2021/09/08 11:57:25;;;;;;;3.15;2.42;;;28.00;58.60;;;;;;5047937;28;20053;-82
2021/09/08 11:59:54;;;;;;;3.63;2.47;;;27.50;58.60;;;;;;5036596;28;20034;-82
2021/09/08 12:02:21;;;;;;;3.93;2.63;;;27.50;59.10;;;;;;5043096;28;20071;-86
2021/09/08 12:04:46;;;;;;;3.80;2.55;;;27.70;59.60;;;;;;5048412;28;20284;-82
2021/09/08 12:07:12;;;;;;;3.65;2.40;;;27.90;60.30;;;;;;5042494;28;20056;-82
2021/09/08 12:09:43;;;;;;;5.03;2.53;;;27.80;59.60;;;;;;5042673;28;20543;-83
2021/09/08 12:12:16;;;;;;;2.75;2.33;;;27.80;59.10;;;;;;5039183;28;20029;-82
2021/09/08 12:14:44;;;;;;;3.67;2.47;;;27.80;59.70;;;;;;5041484;28;20407;-82
2021/09/08 12:17:12;;;;;;;4.35;2.63;;;27.70;58.90;;;;;;5035585;28;20029;-82
2021/09/08 12:19:43;;;;;;;3.45;2.45;;;27.60;59.70;;;;;;5040595;28;20060;-84
2021/09/08 12:22:14;;;;;;;3.20;2.55;;;27.80;58.70;;;;;;5040413;28;20067;-82
2021/09/08 12:24:47;;;;;;;3.72;2.47;;;27.80;59.00;;;;;;5046308;28;20029;-82
2021/09/08 12:27:32;;;;;;;3.67;2.40;;;27.80;58.60;;;;;;5053997;28;20052;-82
2021/09/08 12:30:05;;;;;;;3.20;2.47;;;27.80;60.00;;;;;;5042425;28;20026;-81
2021/09/08 12:32:54;;;;;;;3.92;2.60;;;28.00;58.80;;;;;;5051209;28;20021;-81
2021/09/08 12:35:36;;;;;;;3.45;2.17;;;28.20;58.80;;;;;;5048749;28;20025;-81
2021/09/08 12:38:20;;;;;;;2.90;2.42;;;28.40;57.60;;;;;;5044201;28;20025;-83
2021/09/08 12:41:22;;;;;;;3.55;2.70;;;28.30;57.60;;;;;;5047152;28;20033;-83
2021/09/08 12:43:53;;;;;;;2.92;2.30;;;28.20;57.90;;;;;;5055500;28;20086;-83
2021/09/08 12:46:46;;;;;;;4.80;2.45;;;27.90;58.50;;;;;;5054366;28;20036;-82
2021/09/08 12:49:20;;;;;;;3.63;2.50;;;27.80;58.80;;;;;;5048758;28;20033;-82